HAAB METAR and TAF | Updated Today

HAAB METAR

Addis Ababa Bole International Airport

Observation time: 26 min. ago

HAAB 062000Z 09006KT 9999 BKN025 SCT080 16/11Q1027 NOSIG

Need help? Read our tutorial on how to read METARs or read the parsed version below.

Addis Ababa Bole International Airport (HAAB) METAR

  • Weather conditions on Thu, 06 Oct 2022 20:00:00 +0000 (26 min. ago):
  • Present conditions: Dry
  • Clouds: Broken sky at 762 meters; scattered at 2438 meters
  • Visibility: Greater than 10 km
  • Wind: 90 degrees at 6 knots
  • Temperature: 16 celsius
  • Dew point: 11 celsius
  • Pressure: millibars
  • Remarks: None


Useful to know...

HAAB TAF

Addis Ababa Bole International Airport

TAF HAAB 061530Z 0618/0724 36005KT 9999 SCT026 SCT090
Observation time: 4:56 hr. ago
Need help? Read our tutorial on how to read TAFs or read the parsed version below.

Parsed version of TAF for Addis Ababa Bole International Airport (HAAB)

  • From 06 October at 18:00 UTC, to day 07 of the month at 24:00 UTC
  • Clouds: Scattered at 792 meters; scattered at 2743 meters
  • Visibility: Greater than 10 km
  • Wind: 360 degrees at 5